Gretna, Canada
Current Conditions -  °F | °C
As of 11:35 PM on Friday 24 Oct 2014 (Local Time) from K2C8 Reporting Station
Clear Clear  
Wind Chill: 54°   Ceiling: Unl
Heat Index: 54°   Visibility: 10mi
Dew Point: 32°   Wind: 17mph
Humidity: 44%   Direction: 280°W
Pressure: 29.87"   Gusts: 25mph
Location:  49.01°N, 97.56°W
Report Text: K2C8 250435Z AUTO 28015G22KT 10SM CLR 12/00 A2987 RMK AO2
Loading
Personal Weather Stations






























Interactive Weather Map
Tropical Storm Tracking
New forecast layout! Learn more

10-Day Weather Forecast

Advertisements
Track Severe Weather on mobile